Los Angeles, California
Traffic Map
Current Weather Conditions
Los Angeles, California
Clear
Clear
70°
Feels Like: 70°
Wind Chill: 70° Ceiling: Unl
Heat Index: 70° Visibility: 10mi
Dew Point: 59° Wind: 0mph
Humidity: 68% Direction: ° ()
Pressure: 29.79in Gusts: 0mph
Raw Report DataKCQT 301047Z AUTO 00000KT 10SM CLR 21/15 A2979 RMK AO2 SLP085 T02110150
Traffic Incident Summary
Active as of:
Severity:
Category:
InformationThere was an issue retrieving the traffic information for this location. Please try a different location or try again shortly.
Advertisements
Track Severe Weather on mobile